Time;durP1;ratioP1;P1;durP2;ratioP2;P2;SDS_P1;SDS_P2;PMS_P1;PMS_P2;Temp;Humidity;BMP_temperature;BMP_pressure;BME280_temperature;BME280_humidity;BME280_pressure;Samples;Min_cycle;Max_cycle;Signal;HPM_P1;HPM_P2
2024/01/25 00:00:53;;;;;;;14.03;2.93;;;;;;;;;;4960767;29;20187;-83
2024/01/25 00:03:58;;;;;;;16.77;3.37;;;;;;;;;;4943461;29;20196;-83
2024/01/25 00:07:11;;;;;;;18.60;3.10;;;;;;;;;;4959878;29;20195;-83
2024/01/25 00:10:17;;;;;;;16.03;3.00;;;;;;;;;;4960256;29;20215;-83
2024/01/25 00:13:22;;;;;;;13.40;2.93;;;;;;;;;;4960216;29;20620;-82
2024/01/25 00:16:33;;;;;;;13.33;2.80;;;;;;;;;;4937218;29;20227;-82
2024/01/25 00:19:41;;;;;;;14.73;3.13;;;;;;;;;;4937151;29;20195;-83
2024/01/25 00:22:45;;;;;;;12.97;2.80;;;;;;;;;;4959012;29;20191;-83
2024/01/25 00:25:49;;;;;;;14.10;2.77;;;;;;;;;;4958938;29;20689;-83
2024/01/25 00:28:53;;;;;;;12.47;3.03;;;;;;;;;;4959114;29;20187;-82
2024/01/25 00:32:02;;;;;;;13.33;2.83;;;;;;;;;;4947775;29;20180;-82
2024/01/25 00:35:10;;;;;;;15.13;3.00;;;;;;;;;;4947950;29;20227;-83
2024/01/25 00:38:18;;;;;;;16.83;3.10;;;;;;;;;;4953678;28;20649;-82
2024/01/25 00:41:23;;;;;;;11.50;3.00;;;;;;;;;;4947743;29;20183;-83
2024/01/25 00:44:27;;;;;;;13.67;3.40;;;;;;;;;;4958688;29;20196;-83
2024/01/25 00:47:35;;;;;;;13.80;3.23;;;;;;;;;;4936443;29;20192;-83
2024/01/25 00:50:42;;;;;;;12.43;2.77;;;;;;;;;;4947470;29;20211;-82
2024/01/25 00:53:46;;;;;;;16.13;3.07;;;;;;;;;;4925925;29;20192;-82
2024/01/25 00:56:52;;;;;;;10.60;3.17;;;;;;;;;;4937008;29;20184;-83
2024/01/25 00:59:56;;;;;;;8.43;2.20;;;;;;;;;;4936699;29;20192;-83
2024/01/25 01:03:04;;;;;;;15.27;3.20;;;;;;;;;;4958345;29;20187;-83
2024/01/25 01:06:09;;;;;;;14.73;3.03;;;;;;;;;;4947682;29;20231;-82
2024/01/25 01:09:15;;;;;;;20.57;3.60;;;;;;;;;;4947572;29;20531;-83
2024/01/25 01:12:19;;;;;;;14.43;2.43;;;;;;;;;;4936442;29;20183;-83
2024/01/25 01:15:23;;;;;;;16.40;2.47;;;;;;;;;;4947085;29;20223;-82
2024/01/25 01:18:31;;;;;;;13.50;2.80;;;;;;;;;;4958139;29;20188;-83
2024/01/25 01:21:45;;;;;;;14.60;2.73;;;;;;;;;;4947199;29;20649;-82
2024/01/25 01:24:49;;;;;;;19.43;2.90;;;;;;;;;;4936007;29;20704;-83
2024/01/25 01:27:57;;;;;;;15.60;2.33;;;;;;;;;;4936256;29;20625;-83
2024/01/25 01:31:04;;;;;;;17.20;3.27;;;;;;;;;;4957694;29;20211;-83
2024/01/25 01:34:17;;;;;;;13.00;2.57;;;;;;;;;;4958102;29;20633;-83
2024/01/25 01:37:22;;;;;;;15.03;2.80;;;;;;;;;;4946631;29;20518;-83
2024/01/25 01:40:26;;;;;;;13.53;2.83;;;;;;;;;;4935872;29;20187;-84
2024/01/25 01:43:55;;;;;;;15.00;3.30;;;;;;;;;;4946760;29;20536;-83
2024/01/25 01:47:00;;;;;;;15.73;2.97;;;;;;;;;;4952288;29;20180;-82
2024/01/25 01:50:06;;;;;;;14.30;3.70;;;;;;;;;;4977806;28;20201;-83
2024/01/25 01:53:12;;;;;;;15.30;2.80;;;;;;;;;;4996756;28;20186;-83
2024/01/25 01:56:16;;;;;;;11.30;2.03;;;;;;;;;;4974262;28;20226;-83
2024/01/25 01:59:25;;;;;;;12.80;2.70;;;;;;;;;;4985176;28;20194;-83
2024/01/25 02:02:29;;;;;;;13.30;2.90;;;;;;;;;;4995826;28;20182;-83
2024/01/25 02:05:35;;;;;;;12.20;2.87;;;;;;;;;;4984391;28;20694;-83
2024/01/25 02:08:39;;;;;;;12.20;2.90;;;;;;;;;;4997047;28;20186;-83
2024/01/25 02:11:44;;;;;;;12.93;2.70;;;;;;;;;;4984657;28;20206;-83
2024/01/25 02:14:48;;;;;;;18.67;2.83;;;;;;;;;;4962312;28;20574;-83
2024/01/25 02:17:52;;;;;;;10.73;2.60;;;;;;;;;;4995467;28;20194;-83
2024/01/25 02:20:58;;;;;;;15.87;2.63;;;;;;;;;;4972968;28;20223;-83
2024/01/25 02:24:05;;;;;;;18.47;2.93;;;;;;;;;;4962658;28;20194;-83
2024/01/25 02:27:09;;;;;;;13.07;2.70;;;;;;;;;;4995353;28;20619;-83
2024/01/25 02:30:13;;;;;;;12.37;2.73;;;;;;;;;;4972877;28;20191;-83
2024/01/25 02:33:17;;;;;;;16.90;3.20;;;;;;;;;;4984007;28;20190;-83
2024/01/25 02:36:22;;;;;;;17.80;3.13;;;;;;;;;;4983340;28;20233;-83
2024/01/25 02:39:26;;;;;;;18.53;3.00;;;;;;;;;;4973114;28;20190;-83
2024/01/25 02:42:31;;;;;;;17.07;2.83;;;;;;;;;;4995572;28;20187;-83
2024/01/25 02:45:35;;;;;;;14.33;2.80;;;;;;;;;;4994273;28;20217;-83
2024/01/25 02:48:40;;;;;;;16.40;2.43;;;;;;;;;;4983687;28;20182;-82
2024/01/25 02:51:47;;;;;;;13.13;3.07;;;;;;;;;;4983554;28;20675;-83
2024/01/25 02:55:10;;;;;;;14.67;3.03;;;;;;;;;;4985406;28;20560;-83
2024/01/25 02:58:14;;;;;;;15.63;3.00;;;;;;;;;;4972406;28;20186;-83
2024/01/25 03:01:18;;;;;;;13.20;3.20;;;;;;;;;;4994964;28;20525;-83
2024/01/25 03:04:23;;;;;;;14.50;3.00;;;;;;;;;;4994045;28;20525;-83
2024/01/25 03:07:28;;;;;;;18.03;3.20;;;;;;;;;;4995137;28;20199;-83
2024/01/25 03:10:36;;;;;;;14.13;2.80;;;;;;;;;;4984252;28;20214;-83
2024/01/25 03:13:39;;;;;;;13.30;2.80;;;;;;;;;;4994964;28;20182;-83
2024/01/25 03:16:44;;;;;;;11.00;3.03;;;;;;;;;;4972447;28;20186;-83
2024/01/25 03:19:53;;;;;;;12.87;2.53;;;;;;;;;;4995547;28;20186;-84
2024/01/25 03:22:57;;;;;;;11.37;2.50;;;;;;;;;;4983057;28;20178;-83
2024/01/25 03:26:02;;;;;;;10.67;3.30;;;;;;;;;;4983330;28;20217;-83
2024/01/25 03:29:09;;;;;;;17.83;2.77;;;;;;;;;;4983891;28;20190;-83
2024/01/25 03:32:14;;;;;;;19.10;3.00;;;;;;;;;;4962448;28;20579;-83
2024/01/25 03:35:19;;;;;;;11.67;2.73;;;;;;;;;;4983554;28;20578;-83
2024/01/25 03:38:26;;;;;;;10.80;2.50;;;;;;;;;;4972476;28;20182;-83
2024/01/25 03:41:33;;;;;;;12.53;2.67;;;;;;;;;;4983298;28;20178;-83
2024/01/25 03:44:37;;;;;;;16.07;2.57;;;;;;;;;;4982920;28;20225;-83
2024/01/25 03:47:42;;;;;;;20.03;3.57;;;;;;;;;;4972631;28;20186;-83
2024/01/25 03:50:46;;;;;;;16.63;2.87;;;;;;;;;;4995260;28;20221;-83
2024/01/25 03:53:50;;;;;;;18.50;3.07;;;;;;;;;;4983221;28;20190;-83
2024/01/25 03:56:54;;;;;;;13.93;2.90;;;;;;;;;;4995247;28;20186;-83
2024/01/25 03:59:59;;;;;;;14.90;2.77;;;;;;;;;;4971780;28;20186;-83
2024/01/25 04:03:10;;;;;;;13.90;2.90;;;;;;;;;;4962118;28;20191;-83
2024/01/25 04:06:17;;;;;;;15.53;3.40;;;;;;;;;;4982981;28;20226;-83
2024/01/25 04:09:22;;;;;;;12.63;2.90;;;;;;;;;;4971925;28;20186;-83
2024/01/25 04:12:26;;;;;;;12.77;2.60;;;;;;;;;;4972417;28;20217;-83
2024/01/25 04:15:30;;;;;;;16.57;2.97;;;;;;;;;;4963753;28;20222;-83
2024/01/25 04:18:34;;;;;;;19.27;2.90;;;;;;;;;;4964726;28;20190;-83
2024/01/25 04:21:39;;;;;;;22.77;2.93;;;;;;;;;;4975773;28;20540;-83
2024/01/25 04:24:48;;;;;;;14.23;2.70;;;;;;;;;;4975519;28;20225;-83
2024/01/25 04:27:52;;;;;;;12.90;2.60;;;;;;;;;;4997698;28;20623;-83
2024/01/25 04:30:57;;;;;;;16.50;2.53;;;;;;;;;;4985952;28;20194;-83
2024/01/25 04:34:01;;;;;;;17.53;3.67;;;;;;;;;;4986081;28;20182;-83
2024/01/25 04:37:05;;;;;;;21.63;3.27;;;;;;;;;;4974698;28;20182;-83
2024/01/25 04:40:14;;;;;;;14.47;2.90;;;;;;;;;;4963730;28;20525;-83
2024/01/25 04:43:21;;;;;;;14.63;3.30;;;;;;;;;;4997812;28;20528;-83
2024/01/25 04:46:24;;;;;;;13.47;2.80;;;;;;;;;;4997195;28;20690;-83
2024/01/25 04:49:31;;;;;;;14.37;2.80;;;;;;;;;;4985687;28;20194;-83
2024/01/25 04:52:37;;;;;;;16.93;3.17;;;;;;;;;;4997128;28;20695;-83
2024/01/25 04:55:42;;;;;;;15.27;2.97;;;;;;;;;;4998126;28;20225;-83
2024/01/25 04:58:51;;;;;;;16.77;2.80;;;;;;;;;;4974962;28;20186;-83
2024/01/25 05:02:00;;;;;;;16.03;3.73;;;;;;;;;;4985880;28;20175;-83
2024/01/25 05:05:08;;;;;;;18.40;2.93;;;;;;;;;;4997014;28;20222;-83
2024/01/25 05:08:17;;;;;;;14.87;3.07;;;;;;;;;;4985847;28;20186;-84
2024/01/25 05:11:22;;;;;;;15.83;2.53;;;;;;;;;;4985802;28;20214;-83
2024/01/25 05:14:26;;;;;;;13.73;2.93;;;;;;;;;;4996759;28;20190;-83
2024/01/25 05:17:31;;;;;;;14.27;3.20;;;;;;;;;;4998129;28;20639;-83
2024/01/25 05:20:36;;;;;;;14.47;3.10;;;;;;;;;;4997124;28;20628;-83
2024/01/25 05:23:40;;;;;;;18.30;3.40;;;;;;;;;;4996369;28;20182;-83
2024/01/25 05:26:44;;;;;;;14.47;3.60;;;;;;;;;;4996526;28;20186;-83
2024/01/25 05:29:49;;;;;;;12.80;3.30;;;;;;;;;;4997624;28;20194;-84
2024/01/25 05:33:00;;;;;;;14.33;3.10;;;;;;;;;;4973956;28;20213;-83
2024/01/25 05:36:05;;;;;;;12.10;2.67;;;;;;;;;;4998330;28;20229;-83
2024/01/25 05:39:13;;;;;;;14.10;2.80;;;;;;;;;;4985096;28;20186;-83
2024/01/25 05:42:19;;;;;;;17.33;2.67;;;;;;;;;;4996935;28;20182;-83
2024/01/25 05:45:24;;;;;;;13.27;2.83;;;;;;;;;;4984970;28;20226;-83
2024/01/25 05:48:28;;;;;;;20.67;2.80;;;;;;;;;;4974695;28;20190;-83
2024/01/25 05:51:32;;;;;;;14.47;2.53;;;;;;;;;;4984797;28;20679;-83
2024/01/25 05:54:37;;;;;;;17.53;3.10;;;;;;;;;;4985034;28;20182;-83
2024/01/25 05:57:42;;;;;;;15.43;2.60;;;;;;;;;;4996907;28;20524;-83
2024/01/25 06:00:48;;;;;;;17.33;3.50;;;;;;;;;;4996940;28;20186;-83
2024/01/25 06:03:52;;;;;;;12.80;2.50;;;;;;;;;;4973548;28;20190;-83
2024/01/25 06:07:02;;;;;;;12.43;2.63;;;;;;;;;;4974387;28;20190;-83
2024/01/25 06:10:11;;;;;;;15.30;2.60;;;;;;;;;;4974189;28;20186;-82
2024/01/25 06:13:20;;;;;;;16.80;2.87;;;;;;;;;;4984603;28;20222;-83
2024/01/25 06:16:28;;;;;;;13.00;3.03;;;;;;;;;;4985337;28;20226;-83
2024/01/25 06:19:36;;;;;;;16.50;3.10;;;;;;;;;;4996133;28;20186;-83
2024/01/25 06:22:41;;;;;;;17.97;3.60;;;;;;;;;;4963083;28;20186;-83
2024/01/25 06:25:45;;;;;;;19.37;2.77;;;;;;;;;;4973347;28;20217;-83
2024/01/25 06:28:52;;;;;;;14.83;2.63;;;;;;;;;;4984354;28;20194;-83
2024/01/25 06:31:59;;;;;;;12.60;3.30;;;;;;;;;;4984681;28;20222;-83
2024/01/25 06:35:05;;;;;;;13.57;3.27;;;;;;;;;;4968917;28;20230;-83
2024/01/25 06:38:09;;;;;;;20.93;4.00;;;;;;;;;;4977628;28;20194;-83
2024/01/25 06:41:17;;;;;;;18.20;2.87;;;;;;;;;;4978301;28;20190;-83
2024/01/25 06:44:22;;;;;;;19.07;3.83;;;;;;;;;;4977986;28;20632;-83
2024/01/25 06:47:26;;;;;;;15.77;2.60;;;;;;;;;;4978659;28;20190;-83
2024/01/25 06:50:31;;;;;;;13.83;2.90;;;;;;;;;;4980267;28;20190;-82
2024/01/25 06:53:35;;;;;;;17.77;2.97;;;;;;;;;;4999990;28;20218;-82
2024/01/25 06:56:40;;;;;;;16.83;2.90;;;;;;;;;;5001028;28;20221;-83
2024/01/25 06:59:44;;;;;;;16.03;4.20;;;;;;;;;;4978082;28;20182;-82
2024/01/25 07:02:51;;;;;;;158.20;56.57;;;;;;;;;;4992440;28;20183;-83
2024/01/25 07:05:55;;;;;;;18.40;4.93;;;;;;;;;;4982980;28;20578;-83
2024/01/25 07:08:59;;;;;;;14.87;3.23;;;;;;;;;;4989347;28;20186;-83
2024/01/25 07:12:04;;;;;;;15.37;2.67;;;;;;;;;;4988335;28;20210;-83
2024/01/25 07:15:11;;;;;;;16.90;3.03;;;;;;;;;;4991381;28;20695;-83
2024/01/25 07:18:19;;;;;;;13.37;3.10;;;;;;;;;;5002857;28;20190;-83
2024/01/25 07:21:25;;;;;;;21.33;3.40;;;;;;;;;;4980606;28;20182;-83
2024/01/25 07:24:34;;;;;;;13.10;2.93;;;;;;;;;;4980396;28;20190;-84
2024/01/25 07:27:49;;;;;;;13.47;3.53;;;;;;;;;;4970941;28;20187;-83
2024/01/25 07:31:04;;;;;;;16.03;3.40;;;;;;;;;;4983485;28;20178;-84
2024/01/25 07:34:39;;;;;;;19.07;4.23;;;;;;;;;;4974015;28;20183;-84
2024/01/25 07:39:02;;;;;;;14.73;3.50;;;;;;;;;;4996506;28;20182;-84
2024/01/25 07:42:08;;;;;;;21.33;3.77;;;;;;;;;;4981709;28;20178;-83
2024/01/25 07:45:15;;;;;;;20.70;3.20;;;;;;;;;;4980796;28;20217;-83
2024/01/25 07:48:20;;;;;;;15.10;2.90;;;;;;;;;;4970146;28;20186;-81
2024/01/25 07:51:28;;;;;;;14.53;3.03;;;;;;;;;;4985585;28;20182;-81
2024/01/25 07:54:32;;;;;;;18.43;3.27;;;;;;;;;;4996875;28;20174;-82
2024/01/25 07:57:36;;;;;;;10.57;3.83;;;;;;;;;;5008136;28;20186;-82
2024/01/25 08:00:41;;;;;;;18.30;4.57;;;;;;;;;;5006390;28;20655;-82
2024/01/25 08:03:45;;;;;;;15.00;3.60;;;;;;;;;;5005756;28;20182;-82
2024/01/25 08:06:52;;;;;;;20.17;3.43;;;;;;;;;;4994564;28;20500;-82
2024/01/25 08:09:58;;;;;;;19.47;3.63;;;;;;;;;;5005600;28;20190;-83
2024/01/25 08:13:02;;;;;;;14.57;3.50;;;;;;;;;;4995020;28;20210;-82
2024/01/25 08:16:10;;;;;;;16.57;3.50;;;;;;;;;;4994278;28;20683;-82
2024/01/25 08:19:14;;;;;;;16.27;3.30;;;;;;;;;;4993756;28;20182;-82
2024/01/25 08:22:18;;;;;;;22.23;3.73;;;;;;;;;;4992602;28;20530;-82
2024/01/25 08:25:23;;;;;;;19.00;3.10;;;;;;;;;;5003522;28;20222;-83
2024/01/25 08:28:28;;;;;;;21.43;3.73;;;;;;;;;;5002898;28;20367;-83
2024/01/25 08:31:32;;;;;;;18.50;3.30;;;;;;;;;;5002844;28;20186;-84
2024/01/25 08:34:37;;;;;;;16.67;3.17;;;;;;;;;;4990572;28;20198;-83
2024/01/25 08:37:41;;;;;;;15.57;3.17;;;;;;;;;;4980145;28;20225;-84
2024/01/25 08:40:46;;;;;;;18.13;3.20;;;;;;;;;;4992360;28;20186;-80
2024/01/25 08:43:50;;;;;;;15.50;3.13;;;;;;;;;;5003757;28;20278;-82
2024/01/25 08:47:13;;;;;;;15.97;3.70;;;;;;;;;;4994306;28;20190;-82
2024/01/25 08:50:18;;;;;;;16.30;3.93;;;;;;;;;;4999798;28;20190;-82
2024/01/25 08:53:26;;;;;;;17.33;2.90;;;;;;;;;;5000865;28;20548;-81
2024/01/25 08:56:31;;;;;;;15.17;3.23;;;;;;;;;;5000071;28;20229;-82
2024/01/25 08:59:37;;;;;;;18.57;3.43;;;;;;;;;;5000148;28;20525;-82
2024/01/25 09:02:42;;;;;;;20.93;4.23;;;;;;;;;;4987527;28;20186;-82
2024/01/25 09:05:46;;;;;;;16.57;3.40;;;;;;;;;;4999013;28;20214;-81
2024/01/25 09:08:50;;;;;;;15.33;3.10;;;;;;;;;;4986585;28;20186;-81
2024/01/25 09:11:55;;;;;;;16.57;4.33;;;;;;;;;;4998232;28;20190;-81
2024/01/25 09:15:00;;;;;;;20.93;3.60;;;;;;;;;;4998742;28;20214;-82
2024/01/25 09:18:04;;;;;;;17.73;4.73;;;;;;;;;;4999772;28;20186;-82
2024/01/25 09:21:08;;;;;;;19.83;3.90;;;;;;;;;;4987986;28;20194;-81
2024/01/25 09:24:12;;;;;;;28.17;9.57;;;;;;;;;;4987665;28;20187;-82
2024/01/25 09:27:17;;;;;;;17.47;3.20;;;;;;;;;;4998502;28;20187;-81
2024/01/25 09:30:21;;;;;;;21.07;3.60;;;;;;;;;;4975428;28;20186;-81
2024/01/25 09:33:25;;;;;;;19.17;3.43;;;;;;;;;;4986973;28;20210;-82
2024/01/25 09:36:29;;;;;;;17.07;3.87;;;;;;;;;;4997903;28;20241;-82
2024/01/25 09:39:33;;;;;;;14.50;3.50;;;;;;;;;;4975122;28;20644;-81
2024/01/25 09:42:37;;;;;;;15.17;4.33;;;;;;;;;;4998152;28;20178;-82
2024/01/25 09:45:43;;;;;;;15.67;3.77;;;;;;;;;;4998726;28;20221;-82
2024/01/25 09:48:47;;;;;;;16.57;4.53;;;;;;;;;;4986475;28;20644;-82
2024/01/25 09:51:52;;;;;;;16.27;2.90;;;;;;;;;;4999273;28;20532;-79
2024/01/25 09:54:57;;;;;;;19.60;5.30;;;;;;;;;;5000790;28;20217;-79
2024/01/25 09:58:03;;;;;;;14.27;4.23;;;;;;;;;;5001147;28;20187;-78
2024/01/25 10:01:12;;;;;;;17.77;5.17;;;;;;;;;;5000952;28;20182;-79
2024/01/25 10:04:19;;;;;;;22.87;6.33;;;;;;;;;;5001405;28;20187;-79
2024/01/25 10:07:40;;;;;;;19.03;4.80;;;;;;;;;;5000795;28;20190;-78
2024/01/25 10:10:45;;;;;;;19.40;4.67;;;;;;;;;;5001009;28;20187;-79
2024/01/25 10:13:50;;;;;;;16.20;4.20;;;;;;;;;;4988288;28;20217;-80
2024/01/25 10:16:55;;;;;;;21.23;9.40;;;;;;;;;;4988913;28;20194;-79
2024/01/25 10:19:59;;;;;;;20.53;3.83;;;;;;;;;;5000770;28;20194;-79
2024/01/25 10:23:03;;;;;;;16.73;2.73;;;;;;;;;;5001377;28;20628;-79
2024/01/25 10:26:08;;;;;;;17.97;3.27;;;;;;;;;;4999815;28;20217;-78
2024/01/25 10:29:14;;;;;;;14.37;4.00;;;;;;;;;;4976744;28;20182;-79
2024/01/25 10:32:18;;;;;;;12.93;3.03;;;;;;;;;;4999384;28;20194;-79
2024/01/25 10:35:23;;;;;;;15.30;3.30;;;;;;;;;;4988615;28;20727;-79
2024/01/25 10:38:34;;;;;;;15.47;3.53;;;;;;;;;;4986013;28;20548;-81
2024/01/25 10:41:39;;;;;;;16.33;2.90;;;;;;;;;;4984976;28;20187;-80
2024/01/25 10:44:45;;;;;;;15.40;3.43;;;;;;;;;;4984822;28;20214;-80
2024/01/25 10:47:51;;;;;;;16.97;3.40;;;;;;;;;;4996590;28;20194;-81
2024/01/25 10:50:59;;;;;;;18.47;4.17;;;;;;;;;;4996298;28;20186;-80
2024/01/25 10:54:06;;;;;;;19.23;3.27;;;;;;;;;;4997725;28;20650;-80
2024/01/25 10:57:10;;;;;;;16.17;3.20;;;;;;;;;;4996925;28;20186;-82
2024/01/25 11:00:16;;;;;;;16.73;3.10;;;;;;;;;;4973725;28;20194;-80
2024/01/25 11:03:20;;;;;;;14.27;3.23;;;;;;;;;;4995493;28;20183;-81
2024/01/25 11:06:27;;;;;;;15.33;3.20;;;;;;;;;;4996277;28;20698;-81
2024/01/25 11:09:31;;;;;;;12.60;3.20;;;;;;;;;;4985007;28;20190;-81
2024/01/25 11:12:55;;;;;;;18.23;3.80;;;;;;;;;;4996969;28;20187;-81
2024/01/25 11:16:14;;;;;;;13.57;2.77;;;;;;;;;;4984755;28;20710;-81
2024/01/25 11:19:22;;;;;;;13.30;3.87;;;;;;;;;;4995723;28;20186;-81
2024/01/25 11:22:36;;;;;;;14.70;3.17;;;;;;;;;;4996549;28;20187;-81
2024/01/25 11:25:45;;;;;;;19.50;3.30;;;;;;;;;;4995716;28;20217;-81
2024/01/25 11:28:48;;;;;;;10.30;2.97;;;;;;;;;;4995676;28;20186;-81
2024/01/25 11:31:53;;;;;;;16.57;3.70;;;;;;;;;;4972965;28;20186;-80
2024/01/25 11:34:58;;;;;;;11.73;3.37;;;;;;;;;;4996185;28;20230;-81
2024/01/25 11:38:03;;;;;;;13.43;3.50;;;;;;;;;;4996454;28;20186;-81
2024/01/25 11:41:08;;;;;;;16.67;3.67;;;;;;;;;;4996977;28;20195;-81
2024/01/25 11:44:15;;;;;;;16.23;3.43;;;;;;;;;;4984567;28;20178;-82
2024/01/25 11:47:20;;;;;;;15.30;3.10;;;;;;;;;;4995586;28;20190;-81
2024/01/25 11:50:24;;;;;;;13.43;3.20;;;;;;;;;;4996381;28;20650;-81
2024/01/25 11:53:28;;;;;;;11.27;3.10;;;;;;;;;;4984144;28;20218;-81
2024/01/25 11:56:40;;;;;;;14.03;3.30;;;;;;;;;;4995624;28;20226;-81
2024/01/25 11:59:46;;;;;;;12.80;3.13;;;;;;;;;;4997088;28;20186;-81
2024/01/25 12:02:50;;;;;;;19.50;3.90;;;;;;;;;;4997062;28;20190;-82
2024/01/25 12:05:57;;;;;;;30.00;12.27;;;;;;;;;;4996457;28;20222;-82
2024/01/25 12:09:09;;;;;;;20.73;6.93;;;;;;;;;;4985223;28;20194;-81
2024/01/25 12:12:13;;;;;;;19.10;7.33;;;;;;;;;;4972969;28;20186;-81
2024/01/25 12:15:17;;;;;;;19.87;3.80;;;;;;;;;;4996053;28;20237;-81
2024/01/25 12:18:21;;;;;;;14.17;3.30;;;;;;;;;;4973507;28;20186;-81
2024/01/25 12:21:25;;;;;;;15.83;2.97;;;;;;;;;;4984352;28;20186;-82
2024/01/25 12:24:31;;;;;;;19.83;3.20;;;;;;;;;;4996571;28;20186;-82
2024/01/25 12:27:35;;;;;;;13.60;3.07;;;;;;;;;;4984100;28;20182;-82
2024/01/25 12:30:39;;;;;;;15.43;2.97;;;;;;;;;;4995979;28;20191;-82
2024/01/25 12:33:44;;;;;;;12.03;3.27;;;;;;;;;;4996074;28;20552;-81
2024/01/25 12:36:48;;;;;;;16.03;3.17;;;;;;;;;;4986979;28;20209;-81
2024/01/25 12:39:54;;;;;;;15.63;2.97;;;;;;;;;;4987637;28;20655;-81
2024/01/25 12:42:58;;;;;;;15.20;4.90;;;;;;;;;;4987710;28;20191;-80
2024/01/25 12:46:02;;;;;;;11.27;3.20;;;;;;;;;;4999768;28;20564;-81
2024/01/25 12:49:06;;;;;;;15.57;3.80;;;;;;;;;;4987574;28;20186;-81
2024/01/25 12:52:12;;;;;;;17.87;3.97;;;;;;;;;;4987352;28;20190;-82
2024/01/25 12:55:16;;;;;;;13.20;3.50;;;;;;;;;;4986359;28;20233;-82
2024/01/25 12:58:20;;;;;;;15.77;3.37;;;;;;;;;;4998578;28;20182;-83
2024/01/25 13:01:26;;;;;;;14.33;3.20;;;;;;;;;;4987298;28;20198;-82
2024/01/25 13:04:30;;;;;;;11.13;2.67;;;;;;;;;;4987224;28;20182;-83
2024/01/25 13:07:35;;;;;;;15.37;2.97;;;;;;;;;;4976655;28;20190;-82
2024/01/25 13:10:39;;;;;;;13.80;2.90;;;;;;;;;;5000334;28;20186;-83
2024/01/25 13:13:45;;;;;;;16.07;3.27;;;;;;;;;;4998234;28;20218;-83
2024/01/25 13:16:50;;;;;;;14.50;2.77;;;;;;;;;;4986444;28;20182;-83
2024/01/25 13:19:54;;;;;;;15.17;3.20;;;;;;;;;;4975277;28;20186;-84
2024/01/25 13:22:58;;;;;;;10.77;3.40;;;;;;;;;;4975283;28;20194;-81
2024/01/25 13:26:02;;;;;;;17.10;6.33;;;;;;;;;;4998356;28;20225;-82
2024/01/25 13:29:06;;;;;;;21.97;5.13;;;;;;;;;;4998741;28;20632;-82
2024/01/25 13:32:10;;;;;;;16.40;3.30;;;;;;;;;;4999273;28;20186;-82
2024/01/25 13:35:14;;;;;;;11.90;3.13;;;;;;;;;;4998715;28;20234;-82
2024/01/25 13:38:19;;;;;;;13.37;2.97;;;;;;;;;;4987724;28;20632;-82
2024/01/25 13:41:23;;;;;;;19.83;3.00;;;;;;;;;;4999096;28;20183;-81
2024/01/25 13:44:27;;;;;;;14.50;2.83;;;;;;;;;;4997278;28;20178;-82
2024/01/25 13:47:32;;;;;;;14.57;3.50;;;;;;;;;;4985936;28;20536;-82
2024/01/25 13:50:36;;;;;;;19.13;3.73;;;;;;;;;;4998176;28;20521;-82
2024/01/25 13:53:41;;;;;;;22.90;4.77;;;;;;;;;;4997059;28;20186;-82
2024/01/25 13:56:47;;;;;;;37.10;5.00;;;;;;;;;;4987004;28;20186;-81
2024/01/25 13:59:51;;;;;;;17.23;3.40;;;;;;;;;;4998502;28;20186;-80
2024/01/25 14:02:55;;;;;;;22.47;7.97;;;;;;;;;;4986934;28;20186;-81
2024/01/25 14:06:03;;;;;;;17.07;4.07;;;;;;;;;;4975111;28;20221;-81
2024/01/25 14:09:08;;;;;;;18.03;3.13;;;;;;;;;;4998714;28;20529;-81
2024/01/25 14:12:12;;;;;;;18.00;3.23;;;;;;;;;;4999024;28;20198;-81
2024/01/25 14:15:16;;;;;;;10.60;2.90;;;;;;;;;;4986277;28;20229;-81
2024/01/25 14:18:20;;;;;;;20.97;3.73;;;;;;;;;;4998521;28;20189;-81
2024/01/25 14:21:24;;;;;;;12.43;2.93;;;;;;;;;;4999133;28;20189;-81
2024/01/25 14:24:28;;;;;;;11.27;3.00;;;;;;;;;;4999510;28;20525;-81
2024/01/25 14:27:33;;;;;;;19.10;3.00;;;;;;;;;;4998353;28;20186;-81
2024/01/25 14:30:37;;;;;;;18.47;3.30;;;;;;;;;;4976085;28;20190;-81
2024/01/25 14:33:41;;;;;;;12.07;2.80;;;;;;;;;;4998000;28;20182;-81
2024/01/25 14:36:45;;;;;;;15.57;3.00;;;;;;;;;;4986757;28;20213;-81
2024/01/25 14:39:49;;;;;;;12.77;2.97;;;;;;;;;;4997461;28;20182;-82
2024/01/25 14:42:54;;;;;;;15.70;2.93;;;;;;;;;;4997986;28;20548;-82
2024/01/25 14:45:58;;;;;;;10.07;2.60;;;;;;;;;;4998164;28;20214;-82
2024/01/25 14:49:05;;;;;;;12.47;2.57;;;;;;;;;;4999305;28;20194;-81
2024/01/25 14:52:09;;;;;;;12.93;2.63;;;;;;;;;;4975020;28;20186;-82
2024/01/25 14:55:13;;;;;;;16.90;2.70;;;;;;;;;;4986022;28;20238;-81
2024/01/25 14:58:22;;;;;;;11.67;2.53;;;;;;;;;;4998370;28;20186;-80
2024/01/25 15:01:30;;;;;;;12.77;2.63;;;;;;;;;;4985902;28;20191;-81
2024/01/25 15:04:34;;;;;;;16.70;2.70;;;;;;;;;;5000090;28;20183;-82
2024/01/25 15:07:40;;;;;;;7.57;2.00;;;;;;;;;;4997145;28;20190;-81
2024/01/25 15:10:44;;;;;;;16.20;3.37;;;;;;;;;;4997105;28;20189;-81
2024/01/25 15:13:48;;;;;;;16.83;2.90;;;;;;;;;;4986122;28;20628;-81
2024/01/25 15:16:52;;;;;;;16.63;2.87;;;;;;;;;;4997413;28;20182;-82
2024/01/25 15:19:57;;;;;;;11.40;2.47;;;;;;;;;;4973716;28;20179;-82
2024/01/25 15:23:02;;;;;;;9.43;3.10;;;;;;;;;;4997029;28;20632;-83
2024/01/25 15:26:06;;;;;;;12.73;2.30;;;;;;;;;;4974906;28;20221;-81
2024/01/25 15:29:10;;;;;;;7.13;2.27;;;;;;;;;;4985013;28;20190;-81
2024/01/25 15:32:14;;;;;;;9.37;2.47;;;;;;;;;;4997075;28;20294;-81
2024/01/25 15:35:19;;;;;;;9.27;2.33;;;;;;;;;;4997249;28;20596;-81
2024/01/25 15:38:24;;;;;;;10.37;2.87;;;;;;;;;;4996248;28;20186;-81
2024/01/25 15:41:30;;;;;;;7.47;2.03;;;;;;;;;;4997230;28;20186;-81
2024/01/25 15:44:34;;;;;;;14.67;3.00;;;;;;;;;;4984220;28;20513;-81
2024/01/25 15:47:38;;;;;;;8.03;2.27;;;;;;;;;;4984379;28;20194;-82
2024/01/25 15:50:42;;;;;;;14.03;2.93;;;;;;;;;;4973292;28;20193;-81
2024/01/25 15:53:46;;;;;;;10.37;2.50;;;;;;;;;;4973204;28;20187;-81
2024/01/25 15:56:51;;;;;;;12.73;2.13;;;;;;;;;;4995900;28;20640;-81
2024/01/25 15:59:55;;;;;;;11.80;2.50;;;;;;;;;;4995284;28;20537;-81
2024/01/25 16:02:59;;;;;;;13.57;2.93;;;;;;;;;;4996496;28;20190;-81
2024/01/25 16:06:04;;;;;;;11.53;3.00;;;;;;;;;;4973187;28;20217;-80
2024/01/25 16:09:09;;;;;;;11.83;2.53;;;;;;;;;;4973225;28;20616;-80
2024/01/25 16:12:13;;;;;;;13.20;2.70;;;;;;;;;;5000561;28;20190;-81
2024/01/25 16:15:17;;;;;;;15.97;2.63;;;;;;;;;;4987781;28;20238;-81
2024/01/25 16:18:21;;;;;;;9.37;2.63;;;;;;;;;;4999595;28;20191;-83
2024/01/25 16:21:25;;;;;;;13.37;2.73;;;;;;;;;;4999742;28;20190;-83
2024/01/25 16:24:30;;;;;;;19.57;4.07;;;;;;;;;;5000020;28;20186;-80
2024/01/25 16:27:34;;;;;;;11.30;3.83;;;;;;;;;;5000402;28;20524;-81
2024/01/25 16:30:38;;;;;;;18.73;4.83;;;;;;;;;;5002432;28;20186;-81
2024/01/25 16:33:42;;;;;;;13.53;3.70;;;;;;;;;;4977990;28;20186;-81
2024/01/25 16:36:46;;;;;;;11.97;3.47;;;;;;;;;;5001328;28;20198;-81
2024/01/25 16:39:51;;;;;;;11.20;4.40;;;;;;;;;;4990451;28;20186;-81
2024/01/25 16:42:56;;;;;;;15.87;3.37;;;;;;;;;;4991389;28;20182;-81
2024/01/25 16:46:00;;;;;;;11.90;2.77;;;;;;;;;;5003306;28;20222;-81
2024/01/25 16:49:05;;;;;;;10.57;2.40;;;;;;;;;;5004128;28;20183;-81
2024/01/25 16:52:09;;;;;;;13.50;3.10;;;;;;;;;;5004900;28;20182;-81
2024/01/25 16:55:17;;;;;;;11.70;2.80;;;;;;;;;;5007491;28;20230;-82
2024/01/25 16:58:31;;;;;;;11.63;3.07;;;;;;;;;;4987260;28;20525;-84
2024/01/25 17:01:36;;;;;;;9.33;2.70;;;;;;;;;;4985030;28;20516;-84
2024/01/25 17:04:41;;;;;;;8.67;2.40;;;;;;;;;;5006043;28;20221;-86
2024/01/25 17:07:45;;;;;;;9.77;2.60;;;;;;;;;;4995255;28;20187;-86
2024/01/25 17:10:50;;;;;;;11.90;2.83;;;;;;;;;;4983847;28;20190;-86
2024/01/25 17:13:54;;;;;;;14.37;2.73;;;;;;;;;;5001285;28;20182;-86
2024/01/25 17:16:59;;;;;;;13.73;3.73;;;;;;;;;;5011946;28;20183;-85
2024/01/25 17:20:05;;;;;;;13.17;3.20;;;;;;;;;;4994064;28;20194;-86
2024/01/25 17:23:10;;;;;;;10.10;2.60;;;;;;;;;;5002117;28;20190;-85
2024/01/25 17:26:14;;;;;;;9.27;2.40;;;;;;;;;;4989421;28;20218;-86
2024/01/25 17:29:18;;;;;;;8.00;2.27;;;;;;;;;;5002246;28;20627;-87
2024/01/25 17:32:24;;;;;;;11.43;3.00;;;;;;;;;;5003091;28;20186;-86
2024/01/25 17:35:28;;;;;;;16.77;3.17;;;;;;;;;;4992386;28;20230;-84
2024/01/25 17:38:33;;;;;;;11.40;2.60;;;;;;;;;;4999405;28;20632;-85
2024/01/25 17:41:38;;;;;;;15.30;3.50;;;;;;;;;;4976241;28;20182;-86
2024/01/25 17:44:42;;;;;;;10.60;2.80;;;;;;;;;;5000455;28;20221;-86
2024/01/25 17:47:46;;;;;;;12.23;2.97;;;;;;;;;;4987652;28;20186;-86
2024/01/25 17:50:52;;;;;;;11.97;3.13;;;;;;;;;;5000313;28;20186;-86
2024/01/25 17:53:56;;;;;;;14.10;2.70;;;;;;;;;;4986921;28;20190;-86
2024/01/25 17:57:01;;;;;;;8.63;2.67;;;;;;;;;;4998009;28;20210;-86
2024/01/25 18:00:06;;;;;;;10.00;2.87;;;;;;;;;;4986912;28;20195;-86
2024/01/25 18:03:10;;;;;;;12.67;3.53;;;;;;;;;;4987639;28;20524;-85
2024/01/25 18:06:14;;;;;;;10.07;2.50;;;;;;;;;;4985623;28;20221;-86
2024/01/25 18:09:23;;;;;;;15.57;3.00;;;;;;;;;;4975759;28;20190;-86
2024/01/25 18:12:29;;;;;;;12.00;4.17;;;;;;;;;;4998024;28;20183;-86
2024/01/25 18:15:33;;;;;;;14.80;3.63;;;;;;;;;;4985567;28;20695;-85
2024/01/25 18:18:37;;;;;;;17.40;3.03;;;;;;;;;;4974861;28;20182;-85